Decatur Airport
KDEC : now visible

Airfield :











YOU CAN JOIN US ON...

 
LOGIN :

Register | Disclaimer

   EN    FR    IT 

 









Legend :    VFR   Marginal VFR   IFR   Intensive IFR   Very Intensive IFR
Visi :
Ceiling :
>= 8 km
>= 3000ft
5 to 8 km
1000 to 3000 ft
1500m to 5 km
500 to 1000 ft
800 to 1500m
200 to 500 ft
< 800m
< 200 ft
Symbols :   Thunderstorms  Fog  Heavy snow  Heavy precipitations  Wind > 20 kt






- Airport Elevation : 682 ft
- IATA code : DEC


KDEC - Decatur

CURRENT METAR :
  • 181121Z AUTO 20009KT 5SM -RA OVC004 03/ A2980 RMK AO2 UPB1056E09 P0002 T0028 $

EXPIRED METARs :
  • 181054Z AUTO 20010KT 4SM -RA OVC005 03/ A2982 RMK AO2 SLP102 P0013 T0028 $
  • 180954Z AUTO 19014G21KT 5SM -RA BR OVC005 02/01 A2983 RMK AO2 SLP109 P0026 T00220011 $
  • 180854Z AUTO 18014G21KT 5SM -RA BR OVC005 02/01 A2987 RMK AO2 PK WND 17029/0818 SLP120 P0084 6//// T00170006 56054 $

TAF KDEC
Valid from the 18 at 11:00 until the 19 at 06:00 UTC


181051Z 1811/1906 18014G22KT 5SM -RA BR OVC006 WS020/19050KT
TEMPO 1811/1814 3SM -RA BR OVC004
FM181400 23017KT 1 1/2SM BR VCSH OVC003 WS020/24045KT
FM181600 25019G28KT 5SM BR VCSH OVC006
FM181900 27021G35KT P6SM OVC011



MET'MAP, your aeronautical weather chart ! - Copyright ORBIFLY December 2007 - Disclaimer

ORBIFLY MET'MAP TEAM :

Programming & Development : Alexandra Zaïnal
Concept & original design : Baudouin d'Aumeries
Assistance for programming : Marc-Olivier Méhu
Technical & hardware support : Manuel Goepfert

Contact : metmap@orbifly.com




SOURCES & CREDITS :

   NOAA       Earth
Advisory